Austin, Texas
Traffic Map
Current Weather Conditions
Austin, Texas
Overcast Haze
Overcast
22°
Feels Like: 22°
Wind Chill: 22° Ceiling: 1100
Heat Index: 22° Visibility: 6mi
Dew Point: 19° Wind: 5mph
Humidity: 84% Direction: 170° (S)
Pressure: 29.95in Gusts: 0mph
Raw Report DataKATT 280651Z AUTO 17004KT 6SM HZ OVC011 22/19 A2995 RMK AO2 SLP132 T02170189
Traffic Incident Summary
Active as of:
Severity:
Category:
InformationThere was an issue retrieving the traffic information for this location. Please try a different location or try again shortly.
Advertisements
Track Severe Weather on mobile